Time;durP1;ratioP1;P1;durP2;ratioP2;P2;SDS_P1;SDS_P2;PMS_P1;PMS_P2;Temp;Humidity;BMP_temperature;BMP_pressure;BME280_temperature;BME280_humidity;BME280_pressure;Samples;Min_cycle;Max_cycle;Signal;HPM_P1;HPM_P2
2021/09/19 00:01:12;;;;;;;;;9.00;8.25;;;;;18.99;71.14;100290.50;5055856;28;45390;-69
2021/09/19 00:03:39;;;;;;;;;10.00;9.25;;;;;19.00;71.45;100286.06;5055385;28;45474;-66
2021/09/19 00:06:05;;;;;;;;;13.25;9.75;;;;;19.02;71.03;100284.09;5055132;28;45306;-67
2021/09/19 00:08:30;;;;;;;;;12.75;10.50;;;;;18.99;71.29;100274.53;5055678;28;45196;-68
2021/09/19 00:10:56;;;;;;;;;7.25;6.75;;;;;19.01;70.76;100275.25;5056406;28;45634;-68
2021/09/19 00:13:22;;;;;;;;;9.25;7.75;;;;;18.96;70.91;100272.06;5054165;28;46279;-69
2021/09/19 00:15:47;;;;;;;;;10.50;10.50;;;;;18.90;71.16;100256.59;5055334;28;45347;-67
2021/09/19 00:18:13;;;;;;;;;10.00;8.25;;;;;18.89;71.34;100258.41;5055293;28;45388;-69
2021/09/19 00:20:39;;;;;;;;;9.00;8.00;;;;;18.87;71.34;100260.34;5056031;28;46011;-68
2021/09/19 00:23:08;;;;;;;;;11.50;9.50;;;;;18.85;70.69;100256.97;5055202;28;46541;-68
2021/09/19 00:25:33;;;;;;;;;7.50;7.50;;;;;18.80;71.08;100249.34;5055103;28;45304;-68
2021/09/19 00:27:59;;;;;;;;;8.75;8.75;;;;;18.82;71.11;100255.38;5055131;28;45398;-68
2021/09/19 00:30:25;;;;;;;;;8.00;8.00;;;;;18.82;71.05;100254.56;5070892;28;45338;-68
2021/09/19 00:32:50;;;;;;;;;6.50;6.50;;;;;18.79;71.04;100247.63;5054866;28;45445;-69
2021/09/19 00:35:16;;;;;;;;;9.00;9.00;;;;;18.83;71.13;100254.41;5054780;28;45291;-67
2021/09/19 00:37:42;;;;;;;;;7.25;7.25;;;;;18.78;70.80;100245.13;5054699;28;45324;-68
2021/09/19 00:40:08;;;;;;;;;11.00;8.00;;;;;18.84;71.53;100253.44;5055555;28;45264;-68
2021/09/19 00:42:34;;;;;;;;;9.00;9.00;;;;;18.82;71.81;100251.88;5057953;28;46182;-70
2021/09/19 00:45:02;;;;;;;;;7.00;7.00;;;;;18.77;72.86;100241.59;5058147;28;45444;-67
2021/09/19 00:47:28;;;;;;;;;10.00;8.00;;;;;18.72;74.56;100237.63;5058561;28;45276;-66
2021/09/19 00:49:53;;;;;;;;;11.00;8.25;;;;;18.66;72.71;100244.25;5057857;28;45355;-67
2021/09/19 00:52:19;;;;;;;;;8.00;8.00;;;;;18.62;72.56;100240.16;5057572;28;45371;-67
2021/09/19 00:54:47;;;;;;;;;9.50;7.75;;;;;18.59;72.76;100238.59;5057582;28;45332;-67
2021/09/19 00:57:15;;;;;;;;;7.50;7.50;;;;;18.54;73.01;100235.41;5057831;28;45326;-69
2021/09/19 00:59:43;;;;;;;;;8.00;8.00;;;;;18.51;72.92;100241.84;5057885;28;45365;-67
2021/09/19 01:02:09;;;;;;;;;8.50;7.50;;;;;18.50;73.18;100242.81;5057357;28;45657;-68
2021/09/19 01:04:35;;;;;;;;;9.50;8.00;;;;;18.44;73.14;100230.00;5057598;28;45346;-69
2021/09/19 01:07:00;;;;;;;;;10.50;9.00;;;;;18.36;73.26;100227.94;5058446;28;45281;-67
2021/09/19 01:09:26;;;;;;;;;10.00;9.00;;;;;18.39;73.33;100227.69;5058751;28;45395;-68
2021/09/19 01:11:52;;;;;;;;;7.25;7.25;;;;;18.38;73.12;100233.16;5058250;28;46231;-66
2021/09/19 01:14:22;;;;;;;;;6.25;6.25;;;;;18.30;73.36;100217.75;5057649;28;45480;-68
2021/09/19 01:16:48;;;;;;;;;7.25;7.25;;;;;18.32;74.09;100234.47;5057451;28;45378;-67
2021/09/19 01:19:21;;;;;;;;;9.25;9.00;;;;;18.28;73.66;100219.69;5057733;28;45613;-67
2021/09/19 01:21:48;;;;;;;;;8.50;8.50;;;;;18.30;73.80;100230.25;5057597;28;46516;-68
2021/09/19 01:24:15;;;;;;;;;8.00;8.00;;;;;18.29;73.65;100221.38;5057535;28;45279;-68
2021/09/19 01:26:41;;;;;;;;;7.50;6.75;;;;;18.29;73.76;100228.53;5057562;28;45313;-66
2021/09/19 01:29:07;;;;;;;;;11.00;7.50;;;;;18.24;73.77;100219.09;5057610;28;45477;-67
2021/09/19 01:31:32;;;;;;;;;8.50;7.25;;;;;18.30;73.33;100227.59;5057097;28;47011;-68
2021/09/19 01:33:58;;;;;;;;;8.75;8.50;;;;;18.30;73.62;100225.75;5058007;28;45322;-69
2021/09/19 01:36:23;;;;;;;;;9.25;9.25;;;;;18.30;73.84;100231.06;5056088;28;45421;-68
2021/09/19 01:38:49;;;;;;;;;8.50;8.00;;;;;18.32;73.75;100230.97;5057530;28;45338;-67
2021/09/19 01:41:19;;;;;;;;;10.25;8.75;;;;;18.30;73.42;100216.94;5057040;28;45370;-66
2021/09/19 01:43:45;;;;;;;;;7.00;7.00;;;;;18.34;73.85;100229.03;5057095;28;45197;-70
2021/09/19 01:46:11;;;;;;;;;10.25;9.25;;;;;18.32;73.82;100221.16;5057128;28;45309;-67
2021/09/19 01:48:37;;;;;;;;;12.75;10.75;;;;;18.35;73.65;100222.75;5058060;28;45336;-68
2021/09/19 01:51:04;;;;;;;;;9.75;9.75;;;;;18.33;73.28;100220.19;5056974;28;46444;-68
2021/09/19 01:53:30;;;;;;;;;9.00;8.50;;;;;18.32;73.67;100213.16;5055716;28;45368;-68
2021/09/19 01:55:56;;;;;;;;;12.00;10.75;;;;;18.35;73.69;100222.75;5056840;28;45268;-69
2021/09/19 01:58:23;;;;;;;;;10.50;8.25;;;;;18.34;73.84;100221.03;5057081;28;45320;-68
2021/09/19 02:00:48;;;;;;;;;14.75;11.00;;;;;18.34;73.57;100226.38;5056805;28;45814;-68
2021/09/19 02:03:14;;;;;;;;;9.00;9.00;;;;;18.33;74.01;100225.50;5056476;28;45268;-67
2021/09/19 02:05:40;;;;;;;;;10.25;8.75;;;;;18.24;73.94;100205.78;5056861;28;45212;-69
2021/09/19 02:08:05;;;;;;;;;10.50;9.50;;;;;18.32;73.85;100221.16;5055543;28;45672;-69
2021/09/19 02:10:31;;;;;;;;;10.25;8.00;;;;;18.29;74.01;100220.56;5056854;28;45187;-68
2021/09/19 02:12:56;;;;;;;;;10.75;10.00;;;;;18.26;73.93;100210.97;5056075;28;45447;-70
2021/09/19 02:15:22;;;;;;;;;10.25;10.25;;;;;18.27;74.01;100211.84;5056960;28;45877;-70
2021/09/19 02:17:47;;;;;;;;;10.25;8.50;;;;;18.13;74.16;100191.63;5057258;28;45346;-70
2021/09/19 02:20:15;;;;;;;;;11.75;11.00;;;;;18.21;74.22;100214.03;5056437;28;46190;-70
2021/09/19 02:22:42;;;;;;;;;14.25;12.50;;;;;18.21;73.82;100207.84;5056115;27;45321;-67
2021/09/19 02:25:09;;;;;;;;;11.50;10.00;;;;;18.20;73.87;100204.34;5056565;28;45285;-67
2021/09/19 02:27:35;;;;;;;;;9.00;9.00;;;;;18.16;74.33;100208.22;5056838;28;45540;-68
2021/09/19 02:30:05;;;;;;;;;10.25;10.25;;;;;18.18;74.49;100202.75;5054928;28;47864;-70
2021/09/19 02:32:31;;;;;;;;;12.00;11.00;;;;;18.16;74.25;100197.56;5056465;28;45670;-67
2021/09/19 02:34:56;;;;;;;;;10.00;9.50;;;;;18.17;74.20;100209.03;5056276;28;45332;-68
2021/09/19 02:37:22;;;;;;;;;10.25;10.25;;;;;18.14;74.09;100212.81;5056517;28;45198;-67
2021/09/19 02:39:47;;;;;;;;;12.75;12.25;;;;;18.12;74.41;100205.91;5056195;28;46909;-67
2021/09/19 02:42:12;;;;;;;;;12.50;10.50;;;;;18.11;74.17;100205.06;5056288;27;45253;-67
2021/09/19 02:44:38;;;;;;;;;13.25;11.00;;;;;18.06;74.36;100191.28;5056263;28;45255;-68
2021/09/19 02:47:03;;;;;;;;;12.75;10.00;;;;;18.08;74.41;100198.16;5056618;28;45232;-67
2021/09/19 02:49:29;;;;;;;;;12.75;12.75;;;;;18.07;74.47;100198.28;5055954;28;45601;-68
2021/09/19 02:51:54;;;;;;;;;11.25;11.00;;;;;18.07;74.02;100193.81;5056081;28;45355;-69
2021/09/19 02:54:19;;;;;;;;;12.00;11.75;;;;;18.07;74.32;100190.31;5055784;28;45396;-69
2021/09/19 02:56:45;;;;;;;;;13.25;11.75;;;;;18.05;74.58;100189.56;5054608;28;45612;-68
2021/09/19 02:59:10;;;;;;;;;13.25;12.25;;;;;18.02;75.13;100187.13;5055611;28;45944;-67
2021/09/19 03:01:36;;;;;;;;;14.00;13.50;;;;;17.99;75.30;100180.22;5056223;28;45275;-67
2021/09/19 03:04:01;;;;;;;;;12.50;12.25;;;;;17.96;74.79;100175.97;5054700;28;45628;-66
2021/09/19 03:06:26;;;;;;;;;11.50;11.50;;;;;17.93;74.84;100173.53;5056149;27;45699;-69
2021/09/19 03:08:52;;;;;;;;;13.25;13.00;;;;;17.93;74.91;100175.38;5054228;28;47204;-67
2021/09/19 03:11:17;;;;;;;;;15.00;12.25;;;;;17.93;74.99;100181.53;5055614;28;45363;-67
2021/09/19 03:13:43;;;;;;;;;14.00;14.00;;;;;17.91;75.22;100166.66;5055574;28;45386;-68
2021/09/19 03:16:08;;;;;;;;;13.75;12.75;;;;;17.92;75.20;100171.03;5055812;28;45350;-67
2021/09/19 03:18:34;;;;;;;;;13.25;9.00;;;;;17.85;75.67;100164.47;5055707;27;45912;-68
2021/09/19 03:20:59;;;;;;;;;15.50;12.50;;;;;17.86;75.75;100172.31;5055563;28;45471;-67
2021/09/19 03:23:25;;;;;;;;;13.50;11.25;;;;;17.87;75.85;100168.69;5055478;28;45383;-68
2021/09/19 03:25:50;;;;;;;;;11.75;11.00;;;;;17.85;75.65;100173.28;5055594;28;45417;-66
2021/09/19 03:28:15;;;;;;;;;13.75;11.75;;;;;17.83;75.86;100177.88;5055220;28;45409;-67
2021/09/19 03:30:41;;;;;;;;;12.00;12.00;;;;;17.83;75.86;100172.56;5055587;28;45347;-67
2021/09/19 03:33:06;;;;;;;;;17.75;13.00;;;;;17.83;76.00;100167.25;5056247;28;45497;-67
2021/09/19 03:35:31;;;;;;;;;14.00;12.50;;;;;17.77;76.34;100178.34;5056225;28;45292;-67
2021/09/19 03:37:57;;;;;;;;;16.25;14.75;;;;;17.75;76.17;100177.63;5055281;28;46232;-68
2021/09/19 03:40:22;;;;;;;;;15.25;12.50;;;;;17.69;76.40;100167.47;5055273;28;45228;-68
2021/09/19 03:42:51;;;;;;;;;16.25;14.00;;;;;17.70;76.39;100179.78;5053693;28;45462;-70
2021/09/19 03:45:17;;;;;;;;;19.50;16.00;;;;;17.69;76.43;100175.44;5055502;28;45598;-66
2021/09/19 03:47:43;;;;;;;;;18.25;16.00;;;;;17.63;76.30;100171.47;5053505;28;47352;-67
2021/09/19 03:50:10;;;;;;;;;13.75;13.00;;;;;17.64;74.61;100171.31;5054859;28;45384;-68
2021/09/19 03:52:36;;;;;;;;;15.25;13.75;;;;;17.61;74.41;100171.56;5055300;28;45465;-68
2021/09/19 03:55:02;;;;;;;;;15.00;14.00;;;;;17.56;73.97;100173.72;5055114;28;45500;-68
2021/09/19 03:57:28;;;;;;;;;14.50;14.50;;;;;17.51;72.71;100168.78;5054403;28;45281;-67
2021/09/19 03:59:53;;;;;;;;;14.25;14.25;;;;;17.46;72.05;100173.56;5054414;28;45169;-67
2021/09/19 04:02:18;;;;;;;;;16.00;14.50;;;;;17.37;71.92;100169.81;5054778;28;45362;-66
2021/09/19 04:04:44;;;;;;;;;16.50;13.00;;;;;17.38;71.98;100168.84;5054946;28;45408;-68
2021/09/19 04:07:09;;;;;;;;;17.00;14.50;;;;;17.35;71.96;100166.41;5055022;28;45332;-69
2021/09/19 04:09:35;;;;;;;;;19.00;15.25;;;;;17.27;71.71;100162.63;5055202;28;45323;-68
2021/09/19 04:12:00;;;;;;;;;16.50;15.25;;;;;17.25;71.42;100170.75;5054689;28;45362;-68
2021/09/19 04:14:25;;;;;;;;;19.25;16.00;;;;;17.21;71.21;100170.09;5070354;28;45552;-68
2021/09/19 04:16:51;;;;;;;;;16.75;16.25;;;;;17.16;71.29;100168.78;5054276;28;45399;-68
2021/09/19 04:19:17;;;;;;;;;17.25;17.00;;;;;17.12;71.55;100172.63;5053421;28;45702;-71
2021/09/19 04:21:42;;;;;;;;;15.00;14.50;;;;;17.07;71.71;100175.59;5055475;28;45430;-68
2021/09/19 04:24:08;;;;;;;;;17.00;14.00;;;;;17.04;71.44;100176.69;5055565;28;45715;-67
2021/09/19 04:26:33;;;;;;;;;19.50;17.00;;;;;16.94;71.48;100179.13;5070199;28;47244;-68
2021/09/19 04:28:58;;;;;;;;;19.75;19.25;;;;;16.96;71.61;100186.97;5054887;28;45339;-67
2021/09/19 04:31:24;;;;;;;;;18.25;16.00;;;;;16.93;71.21;100181.88;5053113;28;45332;-69
2021/09/19 04:33:50;;;;;;;;;17.75;17.75;;;;;16.93;71.23;100182.75;5054760;28;45593;-67
2021/09/19 04:36:16;;;;;;;;;13.50;12.50;;;;;16.92;71.33;100193.47;5054703;28;45449;-67
2021/09/19 04:38:41;;;;;;;;;16.00;15.00;;;;;16.88;71.27;100184.91;5054803;28;45855;-68
2021/09/19 04:41:07;;;;;;;;;12.75;12.75;;;;;16.83;70.89;100178.22;5054804;28;45284;-68
2021/09/19 04:43:32;;;;;;;;;15.25;15.00;;;;;16.76;70.74;100189.28;5054573;28;45232;-68
2021/09/19 04:45:57;;;;;;;;;14.00;14.00;;;;;16.76;70.91;100202.56;5054168;27;45252;-68
2021/09/19 04:48:23;;;;;;;;;14.75;14.75;;;;;16.74;70.84;100204.50;5054350;28;45220;-67
2021/09/19 04:50:48;;;;;;;;;16.25;15.25;;;;;16.67;71.28;100203.22;5054394;28;45281;-67
2021/09/19 04:53:14;;;;;;;;;15.00;14.00;;;;;16.61;71.36;100204.53;5054488;28;45565;-67
2021/09/19 04:55:39;;;;;;;;;15.50;14.50;;;;;16.56;71.33;100200.50;5054394;28;46175;-67
2021/09/19 04:58:04;;;;;;;;;18.25;17.25;;;;;16.52;71.60;100207.84;5054157;28;45240;-67
2021/09/19 05:00:30;;;;;;;;;20.00;18.25;;;;;16.46;71.89;100198.50;5054403;28;45223;-69
2021/09/19 05:02:55;;;;;;;;;20.25;18.75;;;;;16.52;71.95;100205.19;5054463;28;45348;-69
2021/09/19 05:05:21;;;;;;;;;20.50;16.50;;;;;16.49;71.83;100200.09;5054066;28;45207;-68
2021/09/19 05:07:46;;;;;;;;;16.00;15.75;;;;;16.48;72.13;100209.03;5053980;28;45395;-70
2021/09/19 05:10:12;;;;;;;;;15.75;15.50;;;;;16.47;71.86;100208.16;5054472;28;45301;-67
2021/09/19 05:12:37;;;;;;;;;17.25;14.00;;;;;16.43;72.12;100204.03;5054367;28;45326;-67
2021/09/19 05:15:03;;;;;;;;;18.50;15.50;;;;;16.41;71.91;100203.28;5053671;28;45467;-66
2021/09/19 05:17:29;;;;;;;;;15.50;15.50;;;;;16.36;71.82;100197.47;5053821;28;45348;-67
2021/09/19 05:19:54;;;;;;;;;16.00;13.75;;;;;16.36;72.18;100200.94;5054189;28;45554;-67
2021/09/19 05:22:19;;;;;;;;;17.25;15.50;;;;;16.34;72.04;100192.25;5054487;28;45637;-68
2021/09/19 05:24:45;;;;;;;;;15.25;15.25;;;;;16.34;72.03;100202.03;5054317;28;45445;-66
2021/09/19 05:27:10;;;;;;;;;18.25;16.75;;;;;16.29;72.00;100196.19;5056420;28;45331;-68
2021/09/19 05:29:36;;;;;;;;;14.75;11.50;;;;;16.27;72.12;100203.44;5057405;28;45315;-68
2021/09/19 05:32:01;;;;;;;;;15.75;15.75;;;;;16.24;72.14;100195.69;5057634;28;45365;-68
2021/09/19 05:34:27;;;;;;;;;15.50;14.50;;;;;16.23;72.02;100200.13;5056902;28;45578;-68
2021/09/19 05:36:52;;;;;;;;;16.25;14.25;;;;;16.25;72.67;100205.34;5057107;28;45251;-67
2021/09/19 05:39:18;;;;;;;;;19.50;16.75;;;;;16.21;72.25;100197.59;5057132;27;45337;-69
2021/09/19 05:41:43;;;;;;;;;15.50;15.25;;;;;16.25;72.16;100208.00;5057627;28;45267;-67
2021/09/19 05:44:08;;;;;;;;;15.25;14.25;;;;;16.23;72.19;100210.75;5055364;28;46399;-68
2021/09/19 05:46:34;;;;;;;;;18.00;15.75;;;;;16.21;72.24;100216.16;5056844;28;45280;-67
2021/09/19 05:49:00;;;;;;;;;16.25;15.25;;;;;16.17;72.30;100212.03;5056967;28;45688;-66
2021/09/19 05:51:26;;;;;;;;;16.00;14.75;;;;;16.16;72.02;100213.00;5057055;28;45402;-66
2021/09/19 05:53:52;;;;;;;;;20.50;18.25;;;;;16.20;71.78;100230.41;5056799;28;45339;-65
2021/09/19 05:56:17;;;;;;;;;22.25;18.25;;;;;16.16;72.18;100231.56;5056716;28;45404;-68
2021/09/19 05:58:43;;;;;;;;;15.00;13.50;;;;;16.24;72.08;100248.75;5057140;28;45318;-67
2021/09/19 06:01:08;;;;;;;;;20.75;16.50;;;;;16.21;72.08;100234.75;5056957;28;45294;-67
2021/09/19 06:03:34;;;;;;;;;19.00;17.25;;;;;16.25;71.77;100237.19;5056378;28;46439;-67
2021/09/19 06:05:59;;;;;;;;;19.25;17.00;;;;;16.26;71.91;100228.25;5056482;28;45355;-68
2021/09/19 06:08:24;;;;;;;;;16.00;15.75;;;;;16.33;71.67;100240.16;5056662;28;45286;-69
2021/09/19 06:10:50;;;;;;;;;14.00;14.00;;;;;16.32;71.29;100239.28;5056823;28;45508;-67
2021/09/19 06:13:15;;;;;;;;;16.25;14.75;;;;;16.32;71.19;100236.63;5057022;28;46651;-69
2021/09/19 06:15:41;;;;;;;;;16.50;16.00;;;;;16.31;71.47;100231.44;5056391;28;45441;-67
2021/09/19 06:18:08;;;;;;;;;19.00;17.25;;;;;16.33;71.32;100237.50;5056694;28;45168;-67
2021/09/19 06:20:35;;;;;;;;;14.50;14.50;;;;;16.35;71.16;100232.94;5056913;28;45685;-68
2021/09/19 06:23:00;;;;;;;;;18.50;16.25;;;;;16.33;70.93;100235.66;5055061;28;48095;-70
2021/09/19 06:25:26;;;;;;;;;15.50;15.00;;;;;16.37;71.36;100238.97;5056629;28;45239;-68
2021/09/19 06:27:51;;;;;;;;;19.00;17.50;;;;;16.43;70.95;100249.16;5055028;28;45768;-67
2021/09/19 06:30:17;;;;;;;;;16.25;14.50;;;;;16.50;70.90;100238.97;5057214;28;45806;-67
2021/09/19 06:32:42;;;;;;;;;15.25;15.25;;;;;16.55;70.54;100247.47;5056522;28;45457;-68
2021/09/19 06:35:09;;;;;;;;;15.50;12.75;;;;;16.56;70.24;100246.50;5056251;28;45464;-68
2021/09/19 06:37:34;;;;;;;;;19.75;19.25;;;;;16.59;69.97;100248.94;5056460;28;46041;-69
2021/09/19 06:40:00;;;;;;;;;16.25;14.00;;;;;16.62;69.79;100247.84;5056412;28;45374;-68
2021/09/19 06:42:25;;;;;;;;;14.75;14.00;;;;;16.61;69.72;100246.16;5056093;28;46098;-67
2021/09/19 06:44:51;;;;;;;;;20.50;16.25;;;;;16.65;69.93;100247.63;5056006;28;45552;-67
2021/09/19 06:47:16;;;;;;;;;17.00;15.75;;;;;16.69;69.61;100243.81;5056654;28;45397;-68
2021/09/19 06:49:42;;;;;;;;;19.00;17.50;;;;;16.74;69.34;100249.63;5056537;28;45668;-69
2021/09/19 06:52:07;;;;;;;;;17.25;16.25;;;;;16.71;69.07;100241.88;5056191;28;45457;-68
2021/09/19 06:54:32;;;;;;;;;15.50;15.50;;;;;16.81;69.23;100255.38;5056302;28;45386;-68
2021/09/19 06:56:58;;;;;;;;;18.50;16.75;;;;;16.91;69.25;100258.19;5056472;28;45362;-67
2021/09/19 06:59:23;;;;;;;;;21.75;17.25;;;;;17.00;68.77;100260.25;5056195;28;45329;-67
2021/09/19 07:01:49;;;;;;;;;21.75;18.25;;;;;17.12;68.74;100270.94;5056108;28;46592;-67
2021/09/19 07:04:14;;;;;;;;;18.50;18.50;;;;;17.22;68.13;100264.00;5056228;28;45340;-67
2021/09/19 07:06:39;;;;;;;;;17.75;16.25;;;;;17.30;67.93;100266.06;5056420;28;45372;-68
2021/09/19 07:09:05;;;;;;;;;21.75;20.00;;;;;17.41;67.65;100274.09;5057084;28;45285;-69
2021/09/19 07:11:32;;;;;;;;;21.00;18.25;;;;;17.52;66.99;100271.53;5056320;28;46106;-68
2021/09/19 07:13:57;;;;;;;;;23.00;21.00;;;;;17.65;66.72;100270.59;5056084;28;45481;-68
2021/09/19 07:16:23;;;;;;;;;16.50;16.50;;;;;17.71;66.77;100264.81;5054382;28;45561;-68
2021/09/19 07:18:48;;;;;;;;;17.75;15.50;;;;;17.84;66.37;100275.34;5056287;28;45310;-68
2021/09/19 07:21:13;;;;;;;;;20.50;17.25;;;;;17.98;65.90;100268.13;5055907;28;45225;-67
2021/09/19 07:23:39;;;;;;;;;25.50;25.25;;;;;17.98;65.25;100274.31;5054331;28;45351;-67
2021/09/19 07:26:04;;;;;;;;;28.25;24.50;;;;;17.92;65.24;100267.63;5055638;28;45513;-68
2021/09/19 07:28:30;;;;;;;;;19.00;17.25;;;;;18.05;65.54;100280.91;5056220;28;45254;-68
2021/09/19 07:30:56;;;;;;;;;21.25;18.25;;;;;18.10;64.95;100285.88;5055758;28;45377;-68
2021/09/19 07:33:23;;;;;;;;;24.50;18.00;;;;;18.16;65.10;100289.88;5055816;28;45545;-69
2021/09/19 07:35:49;;;;;;;;;20.75;18.50;;;;;18.19;64.86;100297.63;5055947;28;45190;-67
2021/09/19 07:38:18;;;;;;;;;18.75;17.00;;;;;18.20;65.10;100294.84;5055578;28;45233;-67
2021/09/19 07:40:44;;;;;;;;;18.75;15.00;;;;;18.25;64.46;100302.47;5055206;28;45544;-68
2021/09/19 07:43:09;;;;;;;;;14.00;13.25;;;;;18.18;64.25;100312.75;5055437;28;45376;-68
2021/09/19 07:45:35;;;;;;;;;19.50;17.75;;;;;18.09;64.62;100310.81;5054039;28;45439;-67
2021/09/19 07:48:04;;;;;;;;;19.50;17.75;;;;;18.02;64.49;100307.75;5055626;28;45510;-69
2021/09/19 07:50:30;;;;;;;;;20.00;17.75;;;;;17.98;65.07;100318.69;5054531;28;45580;-70
2021/09/19 07:52:55;;;;;;;;;22.00;16.75;;;;;17.95;64.97;100312.63;5055044;28;45214;-68
2021/09/19 07:55:21;;;;;;;;;19.75;18.25;;;;;17.93;64.91;100314.56;5055610;28;45369;-69
2021/09/19 07:57:46;;;;;;;;;25.25;22.25;;;;;18.00;65.07;100322.09;5071292;28;45487;-71
2021/09/19 08:00:12;;;;;;;;;21.75;18.00;;;;;18.05;64.66;100317.31;5055277;28;45466;-68
2021/09/19 08:02:39;;;;;;;;;19.00;18.25;;;;;18.15;64.91;100333.41;5055003;28;45394;-70
2021/09/19 08:05:05;;;;;;;;;20.50;20.25;;;;;18.22;64.18;100332.84;5055170;28;45437;-68
2021/09/19 08:07:31;;;;;;;;;16.50;14.50;;;;;18.37;64.79;100335.28;5055146;28;45415;-68
2021/09/19 08:09:56;;;;;;;;;18.75;15.50;;;;;18.56;64.19;100333.88;5055252;28;46079;-69
2021/09/19 08:12:22;;;;;;;;;22.50;17.75;;;;;18.64;63.32;100315.47;5070851;28;45421;-67
2021/09/19 08:14:47;;;;;;;;;18.25;17.50;;;;;18.83;62.93;100341.50;5055503;28;45988;-69
2021/09/19 08:17:12;;;;;;;;;16.50;16.50;;;;;18.86;62.96;100330.63;5055681;28;45190;-68
2021/09/19 08:19:38;;;;;;;;;14.50;14.00;;;;;18.92;62.38;100343.44;5070765;28;47387;-69
2021/09/19 08:22:04;;;;;;;;;16.67;16.33;;;;;18.95;62.34;100348.53;5053370;28;45325;-67
2021/09/19 08:24:29;;;;;;;;;14.00;12.75;;;;;19.00;61.61;100344.69;5054865;28;45231;-67
2021/09/19 08:26:55;;;;;;;;;18.50;17.00;;;;;19.01;62.01;100341.06;5054726;28;45582;-66
2021/09/19 08:29:22;;;;;;;;;19.25;17.75;;;;;19.07;61.62;100349.38;5054797;28;46246;-68
2021/09/19 08:31:48;;;;;;;;;20.00;19.00;;;;;19.14;61.67;100349.75;5054429;28;45536;-68
2021/09/19 08:34:13;;;;;;;;;15.50;14.50;;;;;19.23;61.22;100350.84;5054352;28;45488;-67
2021/09/19 08:36:39;;;;;;;;;16.50;15.00;;;;;19.23;60.67;100345.53;5054394;28;45572;-67
2021/09/19 08:39:07;;;;;;;;;17.25;15.50;;;;;19.25;60.85;100354.25;5054206;28;46623;-67
2021/09/19 08:41:33;;;;;;;;;16.00;14.75;;;;;19.27;60.39;100354.97;5053045;28;45359;-67
2021/09/19 08:43:58;;;;;;;;;22.00;17.75;;;;;19.26;60.57;100364.75;5054269;28;45292;-66
2021/09/19 08:46:25;;;;;;;;;19.00;15.25;;;;;19.37;60.87;100377.25;5054811;28;45612;-68
2021/09/19 08:48:51;;;;;;;;;22.50;18.75;;;;;19.43;60.90;100381.22;5054389;28;46252;-67
2021/09/19 08:51:18;;;;;;;;;18.50;17.75;;;;;19.48;60.44;100371.03;5069966;28;45505;-68
2021/09/19 08:53:44;;;;;;;;;21.50;16.75;;;;;19.61;60.50;100364.69;5054393;28;45384;-69
2021/09/19 08:56:10;;;;;;;;;17.75;17.50;;;;;19.60;59.57;100371.00;5054606;28;45513;-68
2021/09/19 08:58:37;;;;;;;;;18.75;18.75;;;;;19.50;60.06;100365.59;5054164;28;46436;-70
2021/09/19 09:01:03;;;;;;;;;16.00;14.00;;;;;19.44;59.88;100364.25;5054544;28;45389;-69
2021/09/19 09:03:30;;;;;;;;;18.75;16.00;;;;;19.51;60.51;100367.28;5056668;28;45232;-68
2021/09/19 09:05:59;;;;;;;;;18.00;17.00;;;;;19.56;60.00;100375.75;5056704;28;45311;-68
2021/09/19 09:08:26;;;;;;;;;19.00;17.00;;;;;19.61;59.79;100380.69;5056755;28;47322;-69
2021/09/19 09:10:54;;;;;;;;;16.75;16.75;;;;;19.57;60.12;100377.44;5057685;28;45445;-71
2021/09/19 09:13:21;;;;;;;;;13.75;12.00;;;;;19.60;60.05;100379.00;5057589;28;45416;-66
2021/09/19 09:15:52;;;;;;;;;12.25;11.75;;;;;19.69;60.14;100383.59;5057588;28;45293;-67
2021/09/19 09:18:36;;;;;;;;;19.25;16.00;;;;;19.78;60.03;100403.34;5057052;28;45305;-67
2021/09/19 09:21:08;;;;;;;;;19.25;18.50;;;;;19.83;59.17;100407.34;5055828;28;45361;-68
2021/09/19 09:23:43;;;;;;;;;17.00;16.00;;;;;19.81;59.79;100406.63;5055776;28;45843;-68
2021/09/19 09:26:18;;;;;;;;;21.25;15.25;;;;;19.85;58.81;100407.19;5057672;28;45327;-67
2021/09/19 09:28:45;;;;;;;;;17.75;17.75;;;;;19.90;59.24;100405.03;5055826;28;47186;-69
2021/09/19 09:31:13;;;;;;;;;21.25;21.25;;;;;19.94;59.04;100397.63;5056771;28;45419;-68
2021/09/19 09:33:52;;;;;;;;;14.00;14.00;;;;;20.02;59.38;100399.63;5056993;28;45260;-68
2021/09/19 09:36:31;;;;;;;;;19.00;17.75;;;;;20.17;58.96;100411.75;5057115;28;45283;-68
2021/09/19 09:38:56;;;;;;;;;15.50;15.00;;;;;20.22;58.76;100408.66;5057525;28;45455;-69
2021/09/19 09:41:37;;;;;;;;;15.25;13.75;;;;;20.37;58.60;100418.06;5055880;28;45343;-68
2021/09/19 09:44:03;;;;;;;;;17.25;16.50;;;;;20.47;58.56;100417.28;5055638;28;45427;-68
2021/09/19 09:46:28;;;;;;;;;16.75;16.25;;;;;20.47;58.22;100396.75;5057194;27;45486;-67
2021/09/19 09:48:54;;;;;;;;;15.25;14.75;;;;;20.61;58.21;100416.94;5057013;28;45390;-68
2021/09/19 09:51:24;;;;;;;;;20.00;16.25;;;;;20.72;57.69;100414.22;5057365;28;45485;-69
2021/09/19 09:54:00;;;;;;;;;19.25;19.25;;;;;20.77;57.33;100410.31;5057338;28;45276;-68
2021/09/19 09:56:25;;;;;;;;;18.00;17.50;;;;;20.77;57.17;100408.47;5073156;28;45561;-68
2021/09/19 09:58:52;;;;;;;;;17.50;16.75;;;;;20.78;57.24;100412.88;5055418;28;47430;-69
2021/09/19 10:01:19;;;;;;;;;18.75;16.00;;;;;20.85;57.11;100424.72;5056849;28;45369;-69
2021/09/19 10:03:49;;;;;;;;;19.50;18.25;;;;;20.90;57.15;100412.78;5056954;28;45349;-68
2021/09/19 10:06:14;;;;;;;;;20.00;18.25;;;;;21.06;57.00;100426.50;5056677;28;45705;-69
2021/09/19 10:08:41;;;;;;;;;20.50;18.00;;;;;21.11;56.55;100413.56;5054978;28;45488;-70
2021/09/19 10:11:07;;;;;;;;;20.00;16.50;;;;;21.23;56.27;100434.91;5056533;28;45403;-70
2021/09/19 10:13:34;;;;;;;;;19.50;18.25;;;;;21.25;56.25;100424.91;5071394;28;45363;-70
2021/09/19 10:16:01;;;;;;;;;18.00;16.75;;;;;21.27;56.36;100430.97;5055192;28;45370;-69
2021/09/19 10:18:27;;;;;;;;;19.50;17.25;;;;;21.30;55.80;100428.84;5056863;28;45870;-70
2021/09/19 10:20:53;;;;;;;;;21.25;19.25;;;;;21.29;55.91;100429.00;5056211;28;45328;-68
2021/09/19 10:23:23;;;;;;;;;21.50;19.25;;;;;21.37;55.93;100428.31;5056652;28;45333;-69
2021/09/19 10:25:56;;;;;;;;;17.50;17.50;;;;;21.48;55.70;100422.84;5056593;28;45549;-67
2021/09/19 10:28:40;;;;;;;;;16.25;16.25;;;;;21.66;55.18;100428.44;5054902;28;46985;-68
2021/09/19 10:31:09;;;;;;;;;20.00;17.25;;;;;21.72;55.01;100419.84;5056574;28;45351;-70
2021/09/19 10:33:40;;;;;;;;;18.25;16.00;;;;;21.78;54.97;100417.59;5056581;28;45369;-69
2021/09/19 10:36:34;;;;;;;;;19.00;18.25;;;;;21.97;54.50;100420.28;5071797;28;45292;-71
2021/09/19 10:39:20;;;;;;;;;17.50;17.00;;;;;22.21;53.88;100415.50;5051330;27;47217;-71
2021/09/19 10:42:16;;;;;;;;;17.50;15.50;;;;;22.47;53.41;100415.81;5057863;28;45295;-68
2021/09/19 10:44:44;;;;;;;;;17.00;16.25;;;;;22.57;52.64;100423.81;5057426;28;45235;-69
2021/09/19 10:47:11;;;;;;;;;17.00;16.00;;;;;22.62;52.96;100418.84;5056828;28;45381;-67
2021/09/19 10:49:38;;;;;;;;;20.25;19.50;;;;;22.73;52.77;100420.53;5054605;28;47000;-69
2021/09/19 10:52:03;;;;;;;;;19.75;17.25;;;;;22.81;51.71;100417.16;5055905;28;45256;-69
2021/09/19 10:54:48;;;;;;;;;17.75;16.75;;;;;22.77;51.98;100422.78;5056640;28;45248;-69
2021/09/19 10:57:27;;;;;;;;;19.50;17.25;;;;;22.76;51.73;100420.25;5055971;28;45554;-70
2021/09/19 11:00:11;;;;;;;;;19.50;16.75;;;;;22.68;52.14;100423.63;5053610;28;47222;-70
2021/09/19 11:02:40;;;;;;;;;14.25;12.50;;;;;22.70;52.00;100423.50;5055351;28;45389;-69
2021/09/19 11:05:24;;;;;;;;;21.50;17.75;;;;;22.77;52.10;100427.31;5055598;28;45350;-67
2021/09/19 11:08:03;;;;;;;;;19.00;17.75;;;;;22.76;52.08;100433.66;5070950;28;45438;-69
2021/09/19 11:10:31;;;;;;;;;19.25;17.00;;;;;22.81;51.55;100422.50;5055430;28;46115;-68